Time;durP1;ratioP1;P1;durP2;ratioP2;P2;SDS_P1;SDS_P2;PMS_P1;PMS_P2;Temp;Humidity;BMP_temperature;BMP_pressure;BME280_temperature;BME280_humidity;BME280_pressure;Samples;Min_cycle;Max_cycle;Signal;HPM_P1;HPM_P2
2022/05/21 00:01:49;;;;;;;13.10;10.80;;;;;;;16.58;68.61;99104.57;215465;1276;139587;-62
2022/05/21 00:06:53;;;;;;;11.00;9.90;;;;;;;16.60;68.60;99079.95;214301;1276;141894;-62
2022/05/21 00:11:56;;;;;;;13.20;8.80;;;;;;;16.55;68.70;99052.94;213739;1275;140710;-61
2022/05/21 00:16:59;;;;;;;13.00;10.00;;;;;;;16.57;68.94;99025.31;215917;1276;140703;-62
2022/05/21 00:22:03;;;;;;;11.30;10.20;;;;;;;16.63;69.30;99017.17;213591;1277;141441;-61
2022/05/21 00:27:07;;;;;;;11.50;9.70;;;;;;;16.64;69.38;99086.05;215511;1276;143688;-62
2022/05/21 00:32:10;;;;;;;11.50;10.40;;;;;;;16.54;69.41;99122.21;214803;1276;141862;-62
2022/05/21 00:37:13;;;;;;;12.40;10.60;;;;;;;16.57;69.93;99060.29;213984;1277;141252;-64
2022/05/21 00:42:16;;;;;;;14.00;10.60;;;;;;;16.62;70.19;99019.65;215955;1275;140060;-64
2022/05/21 00:47:19;;;;;;;10.40;9.10;;;;;;;16.68;70.10;99023.68;215886;1276;141221;-64
2022/05/21 00:52:27;;;;;;;10.80;9.60;;;;;;;16.59;70.02;99020.06;215680;1274;140911;-64
2022/05/21 00:57:44;;;;;;;10.70;9.40;;;;;;;16.57;70.30;99006.33;213818;1276;160341;-63
2022/05/21 01:02:56;;;;;;;10.20;9.30;;;;;;;16.55;70.50;98994.73;215042;1277;140227;-62
2022/05/21 01:08:04;;;;;;;12.10;10.30;;;;;;;16.61;70.69;98993.02;213546;1276;204592;-63
2022/05/21 01:13:16;;;;;;;13.40;9.40;;;;;;;16.66;70.92;98972.43;214749;1276;139524;-62
2022/05/21 01:18:18;;;;;;;13.10;10.10;;;;;;;16.71;70.85;98969.39;214263;1276;141505;-62
2022/05/21 01:23:21;;;;;;;13.40;12.10;;;;;;;16.66;71.00;98964.95;214116;1277;140222;-61
2022/05/21 01:28:26;;;;;;;13.70;11.20;;;;;;;16.67;71.35;98945.52;213043;1276;139898;-61
2022/05/21 01:33:36;;;;;;;9.10;8.30;;;;;;;16.64;71.41;99086.05;214369;1277;141661;-63
2022/05/21 01:38:38;;;;;;;6.00;5.50;;;;;;;16.46;71.33;99052.86;213970;1277;141800;-63
2022/05/21 01:49:02;;;;;;;5.60;4.50;;;;;;;16.29;72.05;98996.29;213526;1277;141679;-63
2022/05/21 01:54:06;;;;;;;6.30;5.50;;;;;;;16.05;72.20;98971.88;213955;1277;139671;-63
2022/05/21 01:59:10;;;;;;;5.00;4.20;;;;;;;16.03;72.73;98969.80;213338;1276;139395;-63
2022/05/21 02:04:13;;;;;;;4.80;4.40;;;;;;;15.90;72.80;98930.20;213814;1276;158645;-63
2022/05/21 02:09:16;;;;;;;5.40;4.00;;;;;;;15.82;73.35;98954.44;213592;1276;140061;-62
2022/05/21 02:14:19;;;;;;;6.50;4.70;;;;;;;15.93;73.66;98978.79;214180;1276;140480;-62
2022/05/21 02:19:21;;;;;;;6.80;5.30;;;;;;;16.02;73.59;98987.83;213598;1277;140566;-62
2022/05/21 02:24:25;;;;;;;4.80;3.80;;;;;;;16.05;73.73;98974.73;215292;1276;140038;-63
2022/05/21 02:29:28;;;;;;;6.50;5.50;;;;;;;15.97;73.50;98968.04;215517;1277;139969;-64
2022/05/21 02:34:31;;;;;;;4.60;4.20;;;;;;;15.93;73.98;98971.44;215905;1276;141425;-62
2022/05/21 02:39:34;;;;;;;3.80;3.50;;;;;;;15.95;73.92;98975.91;215961;1276;140972;-63
2022/05/21 02:44:37;;;;;;;6.60;4.40;;;;;;;15.94;74.20;98985.44;215944;1276;143446;-62
2022/05/21 02:49:40;;;;;;;6.60;4.50;;;;;;;15.94;74.22;99000.02;215313;1277;139838;-62
2022/05/21 02:54:43;;;;;;;5.60;4.20;;;;;;;15.96;74.26;99006.60;213577;1277;140409;-64
2022/05/21 02:59:49;;;;;;;5.70;4.70;;;;;;;16.00;74.50;99000.54;215441;1276;140345;-64
2022/05/21 03:04:51;;;;;;;9.80;5.00;;;;;;;15.99;74.83;99005.17;214129;1277;141170;-62
2022/05/21 03:15:16;;;;;;;3.40;3.10;;;;;;;16.22;75.02;99003.27;213994;1277;140197;-63
2022/05/21 03:20:20;;;;;;;3.30;3.00;;;;;;;16.18;75.01;99005.00;213583;1277;140299;-64
2022/05/21 03:25:24;;;;;;;3.40;2.60;;;;;;;16.25;75.19;99003.75;213243;1277;141372;-64
2022/05/21 03:30:29;;;;;;;2.90;2.60;;;;;;;16.29;75.12;99006.45;213722;1277;140133;-64
2022/05/21 03:35:34;;;;;;;6.70;2.10;;;;;;;16.26;75.20;99020.03;214462;1275;139275;-64
2022/05/21 03:40:38;;;;;;;3.30;3.10;;;;;;;16.22;75.22;99031.77;213082;1277;140906;-64
2022/05/21 03:45:43;;;;;;;4.60;2.90;;;;;;;16.18;75.31;99043.83;213054;1277;140208;-64
2022/05/21 03:50:46;;;;;;;3.70;2.60;;;;;;;16.15;75.72;99039.73;213593;1277;140423;-64
2022/05/21 03:55:48;;;;;;;3.60;3.10;;;;;;;16.15;76.19;99039.45;214021;1276;139797;-64
2022/05/21 04:00:51;;;;;;;4.20;3.80;;;;;;;16.19;76.37;99035.11;213865;1277;139664;-64
2022/05/21 04:05:55;;;;;;;6.00;5.20;;;;;;;16.21;76.61;99032.68;213301;1274;139710;-63
2022/05/21 04:10:59;;;;;;;6.30;5.50;;;;;;;16.23;76.89;99029.27;214244;1277;139456;-63
2022/05/21 04:16:01;;;;;;;8.20;6.60;;;;;;;16.32;76.96;99029.44;214659;1276;140285;-63
2022/05/21 04:21:05;;;;;;;8.80;7.90;;;;;;;16.40;77.24;99032.34;213678;1277;141082;-63
2022/05/21 04:26:07;;;;;;;7.30;6.60;;;;;;;16.41;77.39;99040.24;215849;1277;139337;-64
2022/05/21 04:31:11;;;;;;;10.40;9.40;;;;;;;16.44;77.67;99036.48;215949;1277;139581;-63
2022/05/21 04:36:19;;;;;;;10.30;9.20;;;;;;;16.52;77.79;99039.22;215816;1277;140068;-64
2022/05/21 04:41:23;;;;;;;10.50;8.00;;;;;;;16.58;77.95;99031.55;215324;1277;141434;-64
2022/05/21 04:46:26;;;;;;;7.90;7.20;;;;;;;16.71;78.14;99035.54;215640;1277;141626;-63
2022/05/21 04:51:29;;;;;;;7.30;5.60;;;;;;;16.91;78.02;99038.73;214040;1277;140206;-63
2022/05/21 04:56:34;;;;;;;7.10;5.50;;;;;;;17.07;77.63;99051.41;212964;1277;229411;-64
2022/05/21 05:01:43;;;;;;;5.00;4.00;;;;;;;17.55;76.33;99059.41;213621;1276;139453;-62
2022/05/21 05:06:46;;;;;;;4.40;4.10;;;;;;;19.13;73.34;99064.37;213636;1276;140041;-63
2022/05/21 05:11:52;;;;;;;5.20;3.90;;;;;;;18.98;72.21;99075.52;215371;1277;140384;-63
2022/05/21 05:16:54;;;;;;;7.50;2.80;;;;;;;18.99;71.74;99098.30;214215;1277;140125;-63
2022/05/21 05:21:57;;;;;;;3.00;2.70;;;;;;;19.18;70.32;99107.58;213356;1276;211353;-63
2022/05/21 05:27:00;;;;;;;3.40;3.20;;;;;;;18.57;70.12;99129.98;213922;1276;140132;-63
2022/05/21 05:32:04;;;;;;;2.70;1.90;;;;;;;18.06;70.42;99141.08;213202;1277;140263;-63
2022/05/21 05:37:07;;;;;;;3.40;2.00;;;;;;;18.00;70.11;99150.58;213768;1277;151812;-64
2022/05/21 05:42:10;;;;;;;5.10;1.70;;;;;;;19.40;68.32;99144.09;213780;1277;140491;-62
2022/05/21 05:47:12;;;;;;;0.80;0.80;;;;;;;21.43;65.21;99141.56;214209;1276;140554;-64
2022/05/21 05:52:15;;;;;;;8.20;1.90;;;;;;;22.80;62.38;99150.86;214056;1276;140305;-63
2022/05/21 05:57:17;;;;;;;2.00;1.80;;;;;;;22.13;61.24;99172.22;212920;1277;140441;-63
2022/05/21 06:07:52;;;;;;;1.60;0.80;;;;;;;22.53;58.19;99186.42;213225;1277;140833;-64
2022/05/21 06:12:54;;;;;;;0.80;0.80;;;;;;;24.37;55.89;99194.39;214529;1277;140375;-64
2022/05/21 06:17:57;;;;;;;1.50;1.00;;;;;;;23.21;55.10;99211.60;213276;1277;140646;-64
2022/05/21 06:22:59;;;;;;;2.30;0.90;;;;;;;21.73;55.35;99217.67;215370;1277;140592;-64
2022/05/21 06:28:03;;;;;;;7.80;1.70;;;;;;;20.63;56.08;99221.40;215851;1276;139919;-64
2022/05/21 06:33:26;;;;;;;3.00;1.00;;;;;;;19.78;56.81;99231.35;213953;1277;139746;-64
2022/05/21 06:38:28;;;;;;;4.20;1.30;;;;;;;20.04;56.78;99232.09;215266;1277;140956;-65
2022/05/21 06:43:31;;;;;;;2.70;0.90;;;;;;;19.24;56.89;99239.79;215250;1276;150521;-63
2022/05/21 06:48:33;;;;;;;0.90;0.90;;;;;;;18.59;57.81;99247.54;213892;1276;140792;-64
2022/05/21 06:53:37;;;;;;;1.50;0.90;;;;;;;18.10;58.61;99261.73;214749;1276;140514;-65
2022/05/21 07:14:32;;;;;;;0.60;0.60;;;;;;;19.12;56.17;99298.77;213017;1314;687565;-64
2022/05/21 07:19:36;;;;;;;1.00;0.90;;;;;;;18.30;56.36;99312.64;211457;1289;139933;-64
2022/05/21 07:24:43;;;;;;;1.00;1.00;;;;;;;17.78;57.06;99321.38;210387;1288;1002831;-64
2022/05/21 07:29:48;;;;;;;0.80;0.80;;;;;;;17.34;57.71;99326.38;211317;1287;138743;-63
2022/05/21 07:35:04;;;;;;;3.10;0.90;;;;;;;17.03;58.13;99332.15;212080;1285;140333;-64
2022/05/21 07:40:09;;;;;;;3.70;1.20;;;;;;;16.89;58.66;99343.98;212587;1286;139443;-65
2022/05/21 07:45:14;;;;;;;1.00;1.00;;;;;;;17.01;58.76;99340.26;212597;1286;140638;-66
2022/05/21 07:55:13;;;;;;;1.30;1.20;;;;;;;19.16;58.40;99344.54;214432;1310;684307;-66
2022/05/21 08:00:18;;;;;;;1.40;1.00;;;;;;;20.04;56.55;99341.23;211544;1287;138616;-64
2022/05/21 08:05:21;;;;;;;3.50;0.90;;;;;;;20.35;55.36;99339.70;213892;1284;386366;-65
2022/05/21 08:10:24;;;;;;;3.50;1.00;;;;;;;20.18;54.03;99338.84;214435;1284;139041;-65
2022/05/21 08:15:29;;;;;;;1.10;1.10;;;;;;;19.93;53.44;99346.32;213391;1285;138842;-65
2022/05/21 08:20:34;;;;;;;2.10;0.90;;;;;;;19.49;53.18;99349.81;213043;1282;140185;-64
2022/05/21 08:31:03;;;;;;;0.80;0.80;;;;;;;18.63;53.77;99361.13;213212;1284;151517;-64
2022/05/21 08:36:08;;;;;;;1.10;0.90;;;;;;;18.71;53.86;99364.93;214561;1276;139687;-62
2022/05/21 08:41:23;;;;;;;0.70;0.70;;;;;;;18.82;53.50;99367.27;215039;1276;139061;-64
2022/05/21 08:58:53;;;;;;;5.60;1.10;;;;;;;18.08;52.63;99390.06;213207;1315;683519;-64
2022/05/21 09:03:58;;;;;;;2.70;1.20;;;;;;;17.80;52.95;99396.64;212187;1284;139161;-64
2022/05/21 09:09:10;;;;;;;8.50;1.10;;;;;;;18.20;53.35;99396.13;211694;1284;394883;-64
2022/05/21 09:14:34;;;;;;;0.80;0.80;;;;;;;18.77;53.42;99395.80;212182;1283;140157;-64
2022/05/21 09:19:42;;;;;;;0.80;0.80;;;;;;;19.37;52.24;99400.09;212708;1281;206182;-63
2022/05/21 09:24:48;;;;;;;2.80;0.90;;;;;;;19.41;51.36;99398.45;213185;1281;139814;-65
2022/05/21 09:29:52;;;;;;;4.30;0.90;;;;;;;19.33;50.98;99395.58;212626;1281;138901;-64
2022/05/21 09:35:05;;;;;;;1.30;1.20;;;;;;;19.53;50.64;99411.87;212822;1279;138649;-64
2022/05/21 09:40:36;;;;;;;0.90;0.90;;;;;;;19.45;50.47;99414.34;213381;1279;229430;-64
2022/05/21 09:45:43;;;;;;;3.00;1.30;;;;;;;19.47;50.20;99420.09;212878;1279;138765;-66
2022/05/21 09:50:49;;;;;;;0.70;0.70;;;;;;;19.70;50.16;99423.64;214016;1279;138996;-64
2022/05/21 09:55:57;;;;;;;5.20;1.00;;;;;;;20.05;49.20;99422.08;213707;1279;139777;-64
2022/05/21 10:01:01;;;;;;;0.80;0.80;;;;;;;19.91;48.72;99433.04;214697;1281;139512;-65
2022/05/21 10:06:33;;;;;;;4.60;1.10;;;;;;;19.63;48.24;99434.86;215354;1280;139817;-65
2022/05/21 10:11:48;;;;;;;0.60;0.60;;;;;;;19.38;48.43;99448.03;214516;1279;139692;-65
2022/05/21 10:34:16;;;;;;;3.80;0.80;;;;;;;20.29;47.76;99489.52;212499;1317;685423;-64
2022/05/21 10:39:50;;;;;;;0.90;0.90;;;;;;;19.97;47.84;99497.95;211081;1290;140268;-63
2022/05/21 10:45:29;;;;;;;2.00;1.20;;;;;;;20.31;47.87;99515.95;209945;1288;1435170;-64
2022/05/21 10:57:01;;;;;;;2.20;1.00;;;;;;;19.57;46.52;99524.15;212454;1315;684877;-64
2022/05/21 11:02:18;;;;;;;2.80;1.40;;;;;;;18.97;47.19;99540.89;211407;1287;139390;-64
2022/05/21 11:07:35;;;;;;;3.80;1.10;;;;;;;19.15;47.76;99536.81;212217;1286;481249;-63
2022/05/21 11:12:57;;;;;;;0.70;0.70;;;;;;;19.30;47.13;99552.27;213563;1285;139259;-64
2022/05/21 11:18:06;;;;;;;2.00;0.90;;;;;;;19.48;46.78;99560.68;213552;1284;140449;-64
2022/05/21 11:23:17;;;;;;;1.20;1.00;;;;;;;19.97;46.64;99563.48;213188;1287;140347;-64
2022/05/21 11:28:43;;;;;;;2.70;1.10;;;;;;;20.11;45.63;99574.02;213802;1285;139439;-64
2022/05/21 11:39:15;;;;;;;1.90;1.10;;;;;;;19.01;45.20;99590.27;215655;1277;140627;-65
2022/05/21 11:50:17;;;;;;;2.40;0.70;;;;;;;18.30;46.37;99597.23;214638;1277;139009;-64
2022/05/21 11:55:28;;;;;;;0.90;0.90;;;;;;;18.40;46.73;99600.69;214088;1277;139740;-64
2022/05/21 12:00:43;;;;;;;0.90;0.90;;;;;;;18.61;46.78;99596.13;213433;1277;139796;-64
2022/05/21 12:05:47;;;;;;;1.70;1.10;;;;;;;18.84;46.63;99598.25;213100;1277;140232;-63
2022/05/21 12:11:04;;;;;;;0.80;0.80;;;;;;;18.94;46.28;99604.09;213786;1275;139884;-63
2022/05/21 12:16:22;;;;;;;5.20;1.30;;;;;;;18.75;45.93;99614.63;213567;1275;139639;-64
2022/05/21 12:21:35;;;;;;;2.00;0.80;;;;;;;18.55;46.09;99614.89;212809;1277;139640;-64
2022/05/21 12:26:43;;;;;;;1.00;1.00;;;;;;;18.35;46.55;99619.07;212768;1277;140196;-64
2022/05/21 12:31:50;;;;;;;3.20;1.70;;;;;;;18.39;47.09;99630.34;213022;1277;139873;-64
2022/05/21 12:37:06;;;;;;;1.40;1.30;;;;;;;18.33;47.00;99625.34;214000;1277;139950;-64
2022/05/21 12:42:57;;;;;;;3.60;1.30;;;;;;;18.22;47.15;99622.73;212962;1279;160227;-64
2022/05/21 12:48:09;;;;;;;1.50;1.40;;;;;;;18.15;47.35;99627.55;214381;1277;246926;-65
2022/05/21 12:53:19;;;;;;;2.90;1.50;;;;;;;17.98;47.68;99633.35;213856;1277;138431;-64
2022/05/21 12:58:24;;;;;;;1.50;1.40;;;;;;;17.75;47.97;99634.22;214585;1277;140161;-65
2022/05/21 13:03:35;;;;;;;1.60;0.90;;;;;;;17.54;48.16;99637.02;214039;1276;139340;-65
2022/05/21 13:08:42;;;;;;;1.50;1.00;;;;;;;17.40;48.33;99625.95;214319;1277;140683;-65
2022/05/21 13:13:59;;;;;;;4.10;0.90;;;;;;;17.48;48.55;99623.48;215256;1276;139116;-66
2022/05/21 13:19:05;;;;;;;;;;;;;;;17.72;48.83;99622.81;215719;1277;140398;-66
2022/05/21 13:24:34;;;;;;;2.80;1.60;;;;;;;17.94;48.95;99620.13;216532;1277;125642;-65
2022/05/21 13:29:38;;;;;;;7.10;1.30;;;;;;;18.11;48.63;99622.35;215135;1277;139822;-65
2022/05/21 13:34:42;;;;;;;1.20;1.10;;;;;;;18.05;48.39;99619.89;213783;1277;139263;-64
2022/05/21 13:40:02;;;;;;;4.10;1.10;;;;;;;18.11;48.41;99621.33;215712;1276;139714;-62
2022/05/21 13:45:14;;;;;;;2.70;0.90;;;;;;;17.93;48.33;99621.60;213667;1277;139688;-62
2022/05/21 13:50:22;;;;;;;1.00;0.90;;;;;;;17.71;48.61;99620.34;214167;1277;139828;-62
2022/05/21 13:55:25;;;;;;;2.60;1.60;;;;;;;17.46;48.76;99618.29;213727;1279;139606;-63
2022/05/21 14:00:34;;;;;;;2.10;1.50;;;;;;;17.25;49.04;99626.86;214924;1277;139431;-62
2022/05/21 14:05:52;;;;;;;1.00;0.90;;;;;;;17.12;49.74;99630.47;214039;1279;139853;-61
2022/05/21 14:11:00;;;;;;;1.10;1.00;;;;;;;17.24;50.06;99621.74;213823;1276;140685;-62
2022/05/21 14:16:07;;;;;;;3.20;1.50;;;;;;;17.43;50.46;99618.30;214203;1277;138811;-61
2022/05/21 14:21:25;;;;;;;4.10;1.20;;;;;;;17.68;50.32;99610.45;213246;1277;142069;-61
2022/05/21 14:26:31;;;;;;;2.80;1.00;;;;;;;17.80;50.12;99608.88;213084;1277;140038;-62
2022/05/21 14:31:35;;;;;;;1.80;0.90;;;;;;;17.72;50.19;99605.73;213141;1277;140292;-61
2022/05/21 14:36:44;;;;;;;1.20;0.70;;;;;;;17.62;50.43;99608.77;212828;1277;140641;-63
2022/05/21 14:41:49;;;;;;;3.00;1.20;;;;;;;17.39;50.84;99609.02;212917;1277;161310;-63
2022/05/21 14:57:37;;;;;;;1.20;1.20;;;;;;;16.56;52.68;99662.52;212896;1277;140095;-63
2022/05/21 15:02:41;;;;;;;1.30;1.10;;;;;;;16.21;53.39;99670.42;214907;1277;140048;-62
2022/05/21 15:07:47;;;;;;;3.50;1.70;;;;;;;15.82;54.56;99650.98;214436;1277;140014;-64
2022/05/21 15:12:51;;;;;;;2.00;1.50;;;;;;;15.65;55.97;99648.31;213144;1277;139677;-62
2022/05/21 15:17:57;;;;;;;7.50;1.90;;;;;;;15.65;57.19;99641.27;215722;1277;140500;-63
2022/05/21 15:23:00;;;;;;;1.20;1.10;;;;;;;15.81;57.64;99628.52;215379;1277;140156;-61
2022/05/21 15:28:04;;;;;;;2.60;1.40;;;;;;;15.92;57.71;99616.45;215831;1277;139784;-61
2022/05/21 15:33:09;;;;;;;1.00;1.00;;;;;;;16.26;57.64;99609.42;215875;1277;140725;-62
2022/05/21 15:38:13;;;;;;;1.20;0.80;;;;;;;16.54;57.19;99602.28;214697;1277;140245;-63
2022/05/21 15:43:20;;;;;;;3.80;1.40;;;;;;;16.62;57.12;99592.78;213829;1277;139754;-62
2022/05/21 15:48:26;;;;;;;1.70;1.10;;;;;;;16.64;56.89;99591.02;212888;1277;140106;-63
2022/05/21 15:53:30;;;;;;;2.20;1.40;;;;;;;16.67;56.62;99586.75;213285;1277;139436;-63
2022/05/21 15:58:33;;;;;;;5.20;1.70;;;;;;;16.69;56.40;99580.94;213900;1277;141492;-62
2022/05/21 16:03:39;;;;;;;2.80;1.20;;;;;;;16.59;56.23;99578.55;213497;1277;139279;-63
2022/05/21 16:08:49;;;;;;;2.00;1.20;;;;;;;16.46;56.50;99579.80;212925;1277;139242;-64
2022/05/21 16:13:54;;;;;;;4.60;1.90;;;;;;;16.45;56.57;99577.00;213343;1277;139936;-63
2022/05/21 16:19:02;;;;;;;4.20;1.40;;;;;;;16.28;56.74;99578.58;212931;1277;138865;-63
2022/05/21 16:24:15;;;;;;;1.90;1.00;;;;;;;16.16;57.11;99570.73;213199;1277;140848;-62
2022/05/21 16:29:19;;;;;;;4.00;1.40;;;;;;;16.18;57.37;99578.04;213290;1277;139512;-62
2022/05/21 16:34:24;;;;;;;1.10;1.10;;;;;;;16.43;57.50;99567.96;213987;1277;139111;-63
2022/05/21 16:39:30;;;;;;;1.60;1.50;;;;;;;16.48;57.42;99559.22;213392;1277;138852;-63
2022/05/21 16:44:35;;;;;;;5.20;1.80;;;;;;;16.33;57.52;99551.71;212900;1277;139017;-62
2022/05/21 16:49:42;;;;;;;1.50;1.40;;;;;;;16.23;57.55;99539.71;213782;1276;139483;-62
2022/05/21 16:54:48;;;;;;;1.10;1.10;;;;;;;16.05;57.57;99533.29;212885;1277;139608;-63
2022/05/21 16:59:54;;;;;;;1.40;1.20;;;;;;;15.85;57.46;99539.48;213859;1275;149993;-62
2022/05/21 17:05:01;;;;;;;0.70;0.60;;;;;;;15.59;57.48;99549.55;214080;1277;140651;-62
2022/05/21 17:10:07;;;;;;;3.60;1.50;;;;;;;15.32;57.99;99559.83;214963;1277;139964;-62
2022/05/21 17:15:14;;;;;;;1.10;1.10;;;;;;;15.13;58.42;99543.67;216110;1274;139886;-62
2022/05/21 17:20:19;;;;;;;5.10;1.50;;;;;;;15.02;58.91;99531.70;215971;1274;139978;-62
2022/05/21 17:25:23;;;;;;;2.90;1.80;;;;;;;14.90;59.39;99531.22;216031;1274;140120;-60
2022/05/21 17:30:29;;;;;;;2.90;1.40;;;;;;;14.82;60.17;99529.92;215924;1274;139370;-63
2022/05/21 17:35:39;;;;;;;2.60;1.30;;;;;;;14.78;60.66;99533.24;216002;1274;161027;-63
2022/05/21 17:40:48;;;;;;;4.00;1.50;;;;;;;14.69;61.18;99534.52;214859;1274;140932;-62
2022/05/21 17:45:58;;;;;;;1.40;1.30;;;;;;;14.76;61.82;99529.48;214054;1274;139666;-63
2022/05/21 17:51:05;;;;;;;1.50;1.40;;;;;;;14.91;61.91;99523.39;213757;1274;139926;-64
2022/05/21 17:56:14;;;;;;;3.30;1.90;;;;;;;14.93;62.14;99520.48;214039;1274;141158;-63
2022/05/21 18:01:21;;;;;;;3.30;2.00;;;;;;;14.90;62.34;99524.61;214124;1274;141363;-63
2022/05/21 18:06:26;;;;;;;2.90;2.40;;;;;;;14.74;62.33;99524.43;213978;1274;138859;-65
2022/05/21 18:11:30;;;;;;;4.50;1.40;;;;;;;14.61;62.54;99525.61;214207;1274;140880;-61
2022/05/21 18:21:58;;;;;;;2.70;1.60;;;;;;;14.30;62.68;99529.36;214486;1274;140712;-62
2022/05/21 18:27:01;;;;;;;1.50;1.40;;;;;;;14.11;62.68;99542.39;213200;1274;140488;-61
2022/05/21 18:32:05;;;;;;;2.40;1.30;;;;;;;13.89;62.88;99548.77;213200;1274;141137;-63
2022/05/21 18:37:07;;;;;;;4.80;2.70;;;;;;;13.73;63.04;99553.15;213814;1274;141602;-61
2022/05/21 18:42:12;;;;;;;1.60;1.50;;;;;;;13.59;63.65;99561.52;213272;1274;140551;-62
2022/05/21 18:47:15;;;;;;;2.60;1.70;;;;;;;13.40;63.67;99557.70;213957;1274;141365;-66
2022/05/21 18:52:18;;;;;;;1.90;1.60;;;;;;;13.20;63.85;99567.02;215436;1274;140400;-61
2022/05/21 18:57:24;;;;;;;2.40;1.40;;;;;;;13.05;64.12;99574.59;213082;1274;139447;-63
2022/05/21 19:02:29;;;;;;;2.10;2.00;;;;;;;13.00;64.74;99575.66;215466;1274;140099;-62
2022/05/21 19:07:34;;;;;;;1.60;1.50;;;;;;;12.93;64.49;99577.89;215322;1274;139966;-62
2022/05/21 19:12:39;;;;;;;1.80;1.50;;;;;;;12.85;64.78;99583.49;215609;1274;139206;-61
2022/05/21 19:17:42;;;;;;;9.50;2.30;;;;;;;12.78;65.02;99579.27;216330;1274;139140;-63
2022/05/21 19:22:47;;;;;;;4.10;2.30;;;;;;;12.75;65.52;99581.92;216264;1274;140487;-61
2022/05/21 19:27:51;;;;;;;4.10;2.80;;;;;;;12.71;65.71;99576.15;214815;1274;139624;-61
2022/05/21 19:32:55;;;;;;;2.80;2.50;;;;;;;12.64;66.12;99574.20;214936;1274;139494;-61
2022/05/21 19:38:01;;;;;;;4.30;2.60;;;;;;;12.63;66.21;99575.36;213271;1274;141063;-63
2022/05/21 19:43:05;;;;;;;3.80;1.90;;;;;;;12.65;66.47;99580.73;214663;1273;140470;-61
2022/05/21 19:48:10;;;;;;;3.40;1.90;;;;;;;12.60;66.85;99578.38;214691;1274;140817;-62
2022/05/21 19:53:14;;;;;;;2.40;1.40;;;;;;;12.57;67.24;99578.45;214193;1274;139242;-63
2022/05/21 19:58:39;;;;;;;4.70;2.60;;;;;;;12.53;67.51;99577.09;214820;1274;139710;-61
2022/05/21 20:03:43;;;;;;;3.30;3.00;;;;;;;12.51;67.57;99585.94;214334;1273;150950;-62
2022/05/21 20:08:47;;;;;;;4.40;2.60;;;;;;;12.49;67.85;99584.64;213686;1274;139872;-61
2022/05/21 20:13:57;;;;;;;4.90;3.40;;;;;;;12.48;68.37;99587.14;213403;1274;139072;-63
2022/05/21 20:19:03;;;;;;;6.90;3.90;;;;;;;12.49;68.39;99584.48;213510;1274;140092;-62
2022/05/21 20:24:07;;;;;;;3.50;2.90;;;;;;;12.57;68.62;99581.50;213581;1274;139820;-61
2022/05/21 20:29:11;;;;;;;6.30;4.50;;;;;;;12.59;68.77;99578.89;213815;1274;141365;-61
2022/05/21 20:34:14;;;;;;;3.20;3.00;;;;;;;12.55;69.16;99582.48;213485;1274;140167;-60
2022/05/21 20:39:17;;;;;;;4.20;3.30;;;;;;;12.50;69.08;99576.52;214433;1273;140367;-61
2022/05/21 20:44:21;;;;;;;5.20;3.70;;;;;;;12.44;69.65;99574.41;213960;1274;139708;-62
2022/05/21 20:49:38;;;;;;;6.30;3.70;;;;;;;12.46;69.67;99573.97;215081;1274;141749;-63
2022/05/21 20:54:44;;;;;;;3.90;3.60;;;;;;;12.50;69.82;99568.13;214441;1274;140944;-62
2022/05/21 20:59:49;;;;;;;6.50;4.10;;;;;;;12.54;70.16;99568.09;213629;1273;139260;-61
2022/05/21 21:04:51;;;;;;;5.40;4.50;;;;;;;12.58;70.28;99574.55;213180;1274;140794;-62
2022/05/21 21:09:57;;;;;;;6.30;4.50;;;;;;;12.62;70.23;99610.98;215939;1274;140654;-62
2022/05/21 21:15:00;;;;;;;5.20;2.00;;;;;;;12.59;70.35;99603.13;215782;1274;140269;-64
2022/05/21 21:20:04;;;;;;;1.70;1.60;;;;;;;12.36;69.83;99591.33;216220;1274;149908;-62
2022/05/21 21:25:10;;;;;;;1.40;1.00;;;;;;;12.12;69.61;99586.92;215408;1274;139390;-62
2022/05/21 21:30:18;;;;;;;2.30;1.40;;;;;;;11.99;69.84;99588.92;214712;1274;140330;-62
2022/05/21 21:35:21;;;;;;;3.70;2.50;;;;;;;11.93;70.24;99583.58;213605;1274;140806;-64
2022/05/21 21:40:24;;;;;;;3.90;2.40;;;;;;;11.93;70.78;99586.29;213530;1274;141402;-63
2022/05/21 21:45:27;;;;;;;2.90;2.00;;;;;;;11.91;71.17;99586.65;214042;1274;139469;-63
2022/05/21 21:50:30;;;;;;;3.40;3.20;;;;;;;11.98;71.51;99583.31;213684;1272;140026;-62
2022/05/21 21:55:34;;;;;;;4.70;2.30;;;;;;;12.03;71.91;99580.65;215263;1274;139479;-63
2022/05/21 22:06:07;;;;;;;4.60;2.90;;;;;;;12.07;72.19;99575.11;214163;1274;141347;-61
2022/05/21 22:11:13;;;;;;;3.20;2.40;;;;;;;12.00;72.57;99566.73;214596;1274;139495;-62
2022/05/21 22:16:19;;;;;;;1.90;1.80;;;;;;;11.91;72.61;99562.92;214932;1274;139551;-61
2022/05/21 22:21:23;;;;;;;2.40;2.20;;;;;;;11.87;72.58;99562.68;214082;1277;139903;-60
2022/05/21 22:26:28;;;;;;;4.40;2.20;;;;;;;11.84;73.01;99562.14;214484;1274;141905;-61
2022/05/21 22:31:34;;;;;;;4.30;3.00;;;;;;;11.84;73.10;99558.09;215350;1274;139603;-62
2022/05/21 22:36:40;;;;;;;2.80;2.60;;;;;;;11.87;73.21;99562.14;213447;1274;141965;-60
2022/05/21 22:41:45;;;;;;;5.30;2.20;;;;;;;11.89;73.49;99563.08;214496;1274;141684;-63
2022/05/21 22:46:47;;;;;;;2.80;2.60;;;;;;;11.88;73.83;99562.37;213620;1274;140691;-64
2022/05/21 22:51:50;;;;;;;3.40;2.00;;;;;;;11.86;73.84;99558.77;215571;1274;139788;-63
2022/05/21 22:56:54;;;;;;;3.40;2.30;;;;;;;11.91;74.05;99557.01;215312;1274;140080;-62
2022/05/21 23:01:57;;;;;;;5.30;2.80;;;;;;;11.99;74.11;99557.03;216242;1274;140241;-62
2022/05/21 23:07:04;;;;;;;4.20;2.30;;;;;;;12.06;74.28;99554.95;215281;1274;1389911;-61
2022/05/21 23:12:08;;;;;;;2.60;2.40;;;;;;;12.07;74.30;99550.04;216207;1274;139752;-62
2022/05/21 23:22:37;;;;;;;4.90;3.10;;;;;;;12.09;73.86;99539.11;213658;1274;140900;-62
2022/05/21 23:27:40;;;;;;;3.30;2.20;;;;;;;12.03;74.03;99536.20;214808;1274;161429;-63
2022/05/21 23:32:44;;;;;;;5.70;1.80;;;;;;;11.95;73.73;99538.06;215414;1274;140819;-61
2022/05/21 23:37:48;;;;;;;5.40;2.60;;;;;;;11.94;74.01;99539.23;213335;1274;141570;-61
2022/05/21 23:42:52;;;;;;;2.60;2.40;;;;;;;11.90;73.98;99539.85;214222;1274;141590;-62
2022/05/21 23:47:56;;;;;;;2.20;2.10;;;;;;;11.87;74.10;99546.16;213541;1274;142713;-61
2022/05/21 23:52:59;;;;;;;1.80;1.70;;;;;;;11.84;74.28;99543.50;213340;1274;140534;-62
2022/05/21 23:58:03;;;;;;;4.00;2.20;;;;;;;11.82;74.15;99542.94;213530;1274;140439;-60
